Portada
METAR-TAF:

METAR-TAF

Aeroports :

Biloxi, Mississipí, Estats Units d'Amèrica

latitud: 30-25N, longitud: 088-55W, altitud: 10 m

Observació

L'informe es va fer fa 28 minuts, a les 07:56 UTC
Vent 4 kt del Nord/Nord-Est
Temperatura 20°C
Humitat 56%
Pressió 1020 hPa
Visibilitat: 16.1 km
Escasses núvols a una alçada de 3300 ft
Escasses núvols a una alçada de 19000 ft

METAR: KBIX 300756Z AUTO 03004KT 10SM FEW033 FEW190 20/11 A3011 RMK AO2 SLP199 T01950113

Hora: 03:24 (08:24 UTC)


TAF: manca

Observacions i pronòstics meteorològics de més de 4000 aeroports (METAR i TAF).

Les estacions disponibles són els punts grocs i vermells al mapa.

Posi el ratolí al punt desitjat per veure el nom de l'estació.

Feu clic per veure les observacions i els pronòstics meteorològics.

Per canviar el mapa: feu clic els botons verds amb una creu de color negre per apropar; al botó verd amb un guió per allunyar la imatge; o en les fletxes verdes per a mapes adjacents.


METAR-TAF: